Flight Track Log - Related Links

Times and Time Zones

All times are in EDT time to prevent confusion due to time zone crossing. See the SWA1887 flight status page for this flight to view local times or setup timezone preferences in your user account.

Time Position Orientation Groundspeed Altitude Reporting Facility
EDT Latitude Longitude Course Direction KTS MPH feet Rate Location/Type
Sun 11:09:41 39.7667 -104.6500 204° Southwest 223 257 8,400  Level Denver TRACON
Sun 11:10:41 39.7000 -104.6167 159° South 282 325 11,000 2,643 Climbing Denver TRACON
Sun 11:11:05 39.6669 -104.6006 159° South 295 339 12,100 2,791 Climbing Denver Center
Sun 11:12:07 39.5767 -104.6214 190° South 337 388 15,000 2,855 Climbing Denver Center
Sun 11:13:09 39.4678 -104.6444 189° South 377 434 18,000 2,903 Climbing Denver Center
Sun 11:14:11 39.3633 -104.6689 190° South 384 442 21,000 2,903 Climbing Denver Center
Sun 11:15:00 39.3638 -104.8857 204° Southwest  Level Estimated
Sun 11:15:13 39.2464 -104.6922 189° South 397 457 24,000  Level Denver Center
Sun 11:16:15 39.1381 -104.7167 190° South 411 473 26,100 1,935 Climbing Denver Center
Sun 11:17:17 39.0247 -104.7483 192° South 409 471 28,000 1,839 Climbing Denver Center
Sun 11:18:19 38.9175 -104.8150 206° Southwest 424 488 29,900 1,935 Climbing Denver Center
Sun 11:19:21 38.8142 -104.8786 206° Southwest 410 472 32,000 1,016 Climbing Denver Center
Sun 11:20:23 38.6969 -104.9550 207° Southwest 401 461 32,000  Level Denver Center
Sun 11:21:25 38.5983 -105.0228 208° Southwest 399 459 32,000  Level Denver Center
Sun 11:22:27 38.4981 -105.0922 208° Southwest 405 466 32,000  Level Denver Center
Sun 11:23:29 38.3983 -105.1608 208° Southwest 404 465 32,000  Level Denver Center
Sun 11:24:31 38.2942 -105.2333 209° Southwest 414 476 32,000  Level Denver Center
Sun 11:25:33 38.1819 -105.3094 208° Southwest 410 472 32,000  Level Denver Center
Sun 11:26:35 38.0839 -105.3767 208° Southwest 415 478 32,000  Level Denver Center
Sun 11:27:37 37.9861 -105.4422 208° Southwest 416 479 32,000  Level Denver Center
Sun 11:28:39 37.8717 -105.5203 208° Southwest 416 479 32,000  Level Denver Center
Sun 11:29:41 37.7731 -105.5872 208° Southwest 420 483 32,000  Level Denver Center
Sun 11:30:43 37.6519 -105.6550 204° Southwest 423 487 32,000  Level Denver Center
Sun 11:31:45 37.5336 -105.7103 200° South 424 488 32,000  Level Denver Center
Sun 11:32:47 37.4272 -105.7586 200° South 425 489 32,000  Level Denver Center
Sun 11:33:49 37.3050 -105.8178 201° Southwest 422 486 32,000  Level Denver Center
Sun 11:34:51 37.1986 -105.8658 200° South 424 488 32,000  Level Denver Center
Sun 11:35:53 37.0922 -105.9169 201° Southwest 425 489 32,000  Level Denver Center
Sun 11:36:55 36.9625 -105.9778 201° Southwest 430 495 32,000  Level Denver Center
Sun 11:37:57 36.8531 -106.0267 200° South 432 497 32,000  Level Denver Center
Sun 11:38:59 36.7342 -106.0828 201° Southwest 430 495 32,000  Level Denver Center
Sun 11:40:01 36.6219 -106.1356 201° Southwest 431 496 32,000  Level Denver Center
Sun 11:40:49 36.5319 -106.1747 199° South 438 504 32,000  Level Albuquerque Center
Sun 11:41:50 36.4067 -106.2319 200° South 432 497 32,000 -244 Level Albuquerque Center
Sun 11:42:52 36.2989 -106.2792 199° South 429 494 31,500 -1,694 Descending Albuquerque Center
Sun 11:43:54 36.1739 -106.3336 199° South 426 490 28,500 -2,439 Descending Albuquerque Center
Sun 11:44:55 36.0867 -106.3739 200° South 415 478 26,500 -2,098 Descending Albuquerque Center
Sun 11:45:57 35.9819 -106.4172 199° South 401 461 24,200 -1,984 Descending Albuquerque Center
Sun 11:46:59 35.8644 -106.4672 199° South 374 430 22,400 -1,756 Descending Albuquerque Center
Sun 11:48:00 35.7781 -106.5028 198° South 352 405 20,600 -1,805 Descending Albuquerque Center
Sun 11:49:02 35.6875 -106.5400 198° South 339 390 18,700 -1,818 Descending Albuquerque Center
Sun 11:49:39 35.6253 -106.5636 197° South 331 381 17,600 -1,770 Descending Albuquerque Center
Sun 11:50:03 35.6017 -106.5750 201° Southwest 331 381 16,900 -2,073 Descending Albuquerque Center
Sun 11:50:34 35.5525 -106.5981 201° Southwest 328 377 15,700 -1,742 Descending Albuquerque Center
Sun 11:51:05 35.5172 -106.6189 206° Southwest 330 380 15,100 -1,200 Descending Albuquerque Center
Sun 11:51:34 35.4669 -106.6464 204° Southwest 315 362 14,500 -1,161 Descending Albuquerque Center
Sun 11:52:07 35.4389 -106.6611 203° Southwest 315 362 13,900 -1,475 Descending Albuquerque Center
Sun 11:52:35 35.3908 -106.6869 204° Southwest 292 336 13,000 -1,475 Descending Albuquerque Center
Sun 11:53:08 35.3639 -106.6997 201° Southwest 299 344 12,400 -1,522 Descending Albuquerque Center
Sun 11:53:42 35.3125 -106.7281 204° Southwest 286 329 11,300 -1,452 Descending Albuquerque Center
Sun 11:54:10 35.2922 -106.7397 205° Southwest 287 330 10,900 -1,300 Descending Albuquerque Center
Sun 11:54:42 35.2431 -106.7694 206° Southwest 275 316 10,000 -1,377 Descending Albuquerque Center
Sun 11:55:11 35.2117 -106.7878 206° Southwest 276 318 9,500 -787 Descending Albuquerque Center
Sun 11:55:43 35.1792 -106.8067 205° Southwest 248 285 9,200 -484 Descending Albuquerque Center
Sun 11:56:13 35.1517 -106.8214 204° Southwest 256 295 9,000 -300 Descending Albuquerque Center
Sun 11:56:43 35.1217 -106.8083 160° South 216 249 8,900 -689 Descending Albuquerque Center
Sun 11:57:14 35.0981 -106.7856 142° Southeast 230 265 8,300 -1,180 Descending Albuquerque Center
Sun 11:57:44 35.0767 -106.7575 133° Southeast 201 231 7,700 -1,065 Descending Albuquerque Center
Sun 11:58:16 35.0600 -106.7325 129° Southeast 214 246 7,200 -896 Descending Albuquerque Center
Sun 11:58:51 35.0481 -106.7025 116° Southeast 171 197 6,700 -774 Descending Albuquerque Center
Sun 11:59:18 35.0447 -106.6822 101° East 181 208 6,400 -818 Descending Albuquerque Center
Sun 11:59:57 35.0447 -106.6464 90° East 140 161 5,800 -885 Descending Albuquerque Center
Sun 12:00:19 35.0442 -106.6308 92° East 161 185 5,500 -818 Descending Albuquerque Center
Sun 12:02:00 35.0402 -106.6092 90° East  Level Estimated

Login

Don't have an account? Register now (free) for customized features, flight alerts, and more!